createdAt,value
2023-01-20T00:00:12.779Z,27.20
2023-01-20T00:02:39.830Z,25.40
2023-01-20T00:05:06.923Z,25.50
2023-01-20T00:07:34.788Z,23.70
2023-01-20T00:10:01.332Z,25.60
2023-01-20T00:12:30.616Z,23.80
2023-01-20T00:14:57.187Z,24.70
2023-01-20T00:17:23.828Z,20.00
2023-01-20T00:19:50.306Z,24.50
2023-01-20T00:22:16.767Z,23.70
2023-01-20T00:24:43.173Z,19.10
2023-01-20T00:27:09.837Z,22.60
2023-01-20T00:29:36.339Z,21.80
2023-01-20T00:32:03.121Z,20.00
2023-01-20T00:34:29.950Z,18.60
2023-01-20T00:36:56.374Z,19.90
2023-01-20T00:39:23.123Z,20.40
2023-01-20T00:41:49.559Z,19.70
2023-01-20T00:44:16.153Z,24.30
2023-01-20T00:46:42.700Z,21.70
2023-01-20T00:49:09.894Z,18.70
2023-01-20T00:51:36.336Z,22.80
2023-01-20T00:54:03.097Z,21.70
2023-01-20T00:56:29.602Z,19.40
2023-01-20T00:58:56.092Z,22.60
2023-01-20T01:01:22.944Z,17.30
2023-01-20T01:03:53.526Z,21.60
2023-01-20T01:06:20.595Z,19.50
2023-01-20T01:08:47.148Z,20.70
2023-01-20T01:11:14.831Z,21.80
2023-01-20T01:13:41.420Z,19.60
2023-01-20T01:16:14.525Z,21.10
2023-01-20T01:18:41.695Z,19.40
2023-01-20T01:21:13.350Z,20.60
2023-01-20T01:23:39.987Z,18.40
2023-01-20T01:26:06.637Z,19.70
2023-01-20T01:28:33.171Z,21.40
2023-01-20T01:31:04.259Z,19.30
2023-01-20T01:33:31.345Z,18.50
2023-01-20T01:35:58.520Z,21.00
2023-01-20T01:38:25.362Z,21.00
2023-01-20T01:40:52.125Z,19.30
2023-01-20T01:43:27.460Z,17.90
2023-01-20T01:45:54.084Z,18.80
2023-01-20T01:48:27.600Z,18.20
2023-01-20T01:51:00.445Z,15.50
2023-01-20T01:53:27.003Z,20.10
2023-01-20T01:55:55.985Z,18.40
2023-01-20T01:58:25.339Z,21.10
2023-01-20T02:00:51.816Z,19.90
2023-01-20T02:03:19.059Z,17.10
2023-01-20T02:05:45.844Z,19.80
2023-01-20T02:08:12.344Z,16.50
2023-01-20T02:10:38.869Z,18.40
2023-01-20T02:13:05.505Z,19.50
2023-01-20T02:15:51.521Z,22.10
2023-01-20T02:18:43.121Z,18.70
2023-01-20T02:21:20.715Z,19.60
2023-01-20T02:24:22.979Z,21.60
2023-01-20T02:27:19.075Z,21.80
2023-01-20T02:30:30.848Z,22.10
2023-01-20T02:32:59.081Z,20.70
2023-01-20T02:35:52.362Z,19.90
2023-01-20T02:38:21.977Z,18.20
2023-01-20T02:41:06.847Z,17.40
2023-01-20T02:43:38.228Z,18.30
2023-01-20T02:46:15.451Z,16.20
2023-01-20T02:48:54.715Z,17.50
2023-01-20T02:51:25.063Z,16.40
2023-01-20T02:53:54.523Z,15.70
2023-01-20T02:56:22.951Z,15.50
2023-01-20T02:58:56.132Z,19.80
2023-01-20T03:01:34.523Z,16.50
2023-01-20T03:04:01.760Z,15.50
2023-01-20T03:06:31.346Z,15.60
2023-01-20T03:08:59.220Z,18.30
2023-01-20T03:11:25.951Z,16.30
2023-01-20T03:14:10.117Z,15.10
2023-01-20T03:16:36.552Z,14.40
2023-01-20T03:19:03.732Z,14.30
2023-01-20T03:21:30.736Z,13.60
2023-01-20T03:24:00.140Z,16.50
2023-01-20T03:26:26.949Z,11.10
2023-01-20T03:28:56.054Z,17.20
2023-01-20T03:31:28.154Z,14.40
2023-01-20T03:33:56.586Z,12.70
2023-01-20T03:36:24.268Z,15.30
2023-01-20T03:38:50.794Z,14.10
2023-01-20T03:41:22.594Z,10.90
2023-01-20T03:43:57.044Z,12.80
2023-01-20T03:46:32.472Z,16.30
2023-01-20T03:49:09.280Z,13.70
2023-01-20T03:52:01.267Z,14.90
2023-01-20T03:54:32.988Z,13.20
2023-01-20T03:57:03.552Z,13.00
2023-01-20T03:59:32.205Z,12.00
2023-01-20T04:02:01.772Z,13.10
2023-01-20T04:04:28.911Z,11.40
2023-01-20T04:06:55.360Z,13.10
2023-01-20T04:09:24.325Z,14.80
2023-01-20T04:11:50.887Z,15.50
2023-01-20T04:14:17.305Z,15.40
2023-01-20T04:16:50.287Z,6.70
2023-01-20T04:19:16.829Z,10.50
2023-01-20T04:21:48.465Z,8.00
2023-01-20T04:24:42.499Z,12.40
2023-01-20T04:27:09.117Z,11.20
2023-01-20T04:29:35.756Z,8.90
2023-01-20T04:32:02.589Z,9.00
2023-01-20T04:34:29.369Z,9.70
2023-01-20T04:36:55.820Z,9.60
2023-01-20T04:39:22.423Z,9.80
2023-01-20T04:41:48.906Z,9.60
2023-01-20T04:44:15.614Z,9.90
2023-01-20T04:46:42.147Z,9.50
2023-01-20T04:49:10.394Z,9.20
2023-01-20T04:51:36.868Z,8.20
2023-01-20T04:54:03.403Z,10.20
2023-01-20T04:56:29.889Z,15.50
2023-01-20T04:58:56.365Z,11.20
2023-01-20T05:01:22.943Z,20.50
2023-01-20T05:03:49.484Z,18.30
2023-01-20T05:06:16.231Z,13.00
2023-01-20T05:08:45.094Z,8.30
2023-01-20T05:11:11.596Z,7.70
2023-01-20T05:13:39.583Z,7.30
2023-01-20T05:16:07.503Z,7.60
2023-01-20T05:19:23.689Z,7.00
2023-01-20T05:21:50.314Z,14.40
2023-01-20T05:24:17.027Z,12.80
2023-01-20T05:26:43.731Z,10.20
2023-01-20T05:29:10.408Z,7.50
2023-01-20T05:31:38.780Z,8.90
2023-01-20T05:34:05.530Z,9.70
2023-01-20T05:36:32.919Z,10.10
2023-01-20T08:15:30.795Z,21.30
2023-01-20T08:17:58.609Z,19.70
2023-01-20T08:20:25.309Z,21.50
2023-01-20T08:22:52.105Z,16.30
2023-01-20T08:25:18.824Z,17.90
2023-01-20T08:27:48.076Z,17.60
2023-01-20T08:30:15.162Z,18.30
2023-01-20T08:32:41.927Z,14.80
2023-01-20T08:35:08.796Z,15.70
2023-01-20T08:37:38.602Z,15.60
2023-01-20T08:40:09.823Z,17.50
2023-01-20T08:42:37.126Z,14.20
2023-01-20T08:45:04.995Z,16.60
2023-01-20T08:47:32.171Z,16.90
2023-01-20T08:49:58.830Z,16.00
2023-01-20T08:52:25.674Z,15.30
2023-01-20T08:54:53.347Z,14.00
2023-01-20T08:57:20.013Z,14.90
2023-01-20T08:59:47.384Z,13.30
2023-01-20T09:02:14.169Z,13.20
2023-01-20T09:04:40.928Z,15.10
2023-01-20T09:07:08.271Z,15.20
2023-01-20T09:09:36.678Z,15.90
2023-01-20T09:12:04.649Z,14.30
2023-01-20T09:14:31.329Z,14.30
2023-01-20T09:16:58.250Z,12.30
2023-01-20T09:19:24.930Z,14.10
2023-01-20T09:21:51.605Z,14.50
2023-01-20T09:24:18.448Z,12.80
2023-01-20T09:26:45.345Z,11.90
2023-01-20T09:29:14.240Z,14.80
2023-01-20T09:31:44.709Z,16.00
2023-01-20T09:34:19.567Z,15.20
2023-01-20T09:36:56.270Z,12.40
2023-01-20T09:39:41.717Z,14.20
2023-01-20T09:43:12.723Z,14.50
2023-01-20T09:45:45.553Z,13.00
2023-01-20T09:48:54.564Z,13.70
2023-01-20T09:51:47.572Z,13.00
2023-01-20T09:54:22.895Z,12.80
2023-01-20T09:56:49.689Z,13.30
2023-01-20T09:59:28.147Z,12.20
2023-01-20T10:01:56.741Z,13.00
2023-01-20T10:04:37.177Z,13.50
2023-01-20T10:07:12.957Z,13.20
2023-01-20T10:09:56.538Z,15.70
2023-01-20T10:12:32.207Z,11.50
2023-01-20T10:15:07.549Z,15.40
2023-01-20T10:17:39.033Z,13.90
2023-01-20T10:20:12.100Z,14.00
2023-01-20T10:22:48.128Z,14.00
2023-01-20T10:25:22.177Z,14.00
2023-01-20T10:27:55.709Z,12.50
2023-01-20T10:30:24.552Z,14.50
2023-01-20T10:32:57.503Z,13.30
2023-01-20T10:35:28.843Z,18.50
2023-01-20T10:37:55.835Z,13.20
2023-01-20T10:40:29.831Z,13.70
2023-01-20T10:42:58.641Z,12.80
2023-01-20T10:45:43.787Z,12.50
2023-01-20T10:48:30.304Z,12.70
2023-01-20T10:51:20.737Z,13.80
2023-01-20T10:53:56.321Z,11.90
2023-01-20T10:56:53.700Z,13.00
2023-01-20T10:59:39.811Z,13.80
2023-01-20T11:02:38.162Z,12.10
2023-01-20T11:05:21.041Z,11.90
2023-01-20T11:07:47.871Z,12.60
2023-01-20T11:10:19.527Z,12.50
2023-01-20T11:12:48.883Z,10.50
2023-01-20T11:15:22.380Z,13.60
2023-01-20T11:20:35.012Z,12.40
2023-01-20T11:23:01.732Z,13.20
2023-01-20T11:25:28.362Z,11.30
2023-01-20T11:27:55.102Z,11.20
2023-01-20T11:30:27.435Z,11.70
2023-01-20T11:33:17.058Z,11.50
2023-01-20T11:36:03.700Z,10.60
2023-01-20T11:38:50.838Z,12.30
2023-01-20T11:41:20.043Z,10.90
2023-01-20T11:43:46.847Z,12.00
2023-01-20T11:46:22.549Z,11.80
2023-01-20T11:48:50.212Z,10.90
2023-01-20T11:51:27.361Z,9.80
2023-01-20T11:54:15.514Z,10.20
2023-01-20T11:56:43.046Z,12.20
2023-01-20T11:59:24.589Z,11.20
2023-01-20T12:01:58.018Z,14.10
2023-01-20T12:04:31.980Z,10.70
2023-01-20T12:07:02.874Z,14.80
2023-01-20T12:09:38.387Z,10.90
2023-01-20T12:12:18.105Z,13.40
2023-01-20T12:15:02.297Z,12.30
2023-01-20T12:17:48.966Z,11.70
2023-01-20T12:20:15.861Z,12.80
2023-01-20T12:23:06.003Z,11.40
2023-01-20T12:25:37.665Z,12.10
2023-01-20T12:28:11.001Z,12.50
2023-01-20T12:30:53.362Z,10.40
2023-01-20T12:33:22.214Z,12.10
2023-01-20T12:36:27.497Z,11.20
2023-01-20T12:39:21.123Z,10.90
2023-01-20T12:42:01.805Z,13.60
2023-01-20T12:44:42.177Z,9.90
2023-01-20T12:47:14.628Z,13.10
2023-01-20T12:50:19.038Z,11.50
2023-01-20T12:53:04.129Z,11.00
2023-01-20T12:55:49.000Z,10.00
2023-01-20T12:58:32.083Z,10.80
2023-01-20T13:01:36.087Z,11.60
2023-01-20T13:04:40.549Z,10.00
2023-01-20T13:07:19.244Z,11.00
2023-01-20T13:09:58.091Z,10.00
2023-01-20T13:12:43.567Z,9.10
2023-01-20T13:15:15.269Z,8.10
2023-01-20T13:18:01.091Z,10.70
2023-01-20T13:20:28.488Z,7.90
2023-01-20T13:22:55.458Z,10.40
2023-01-20T13:25:22.394Z,8.20
2023-01-20T13:27:51.141Z,10.50
2023-01-20T13:30:37.104Z,10.30
2023-01-20T13:33:07.787Z,9.50
2023-01-20T13:35:46.949Z,8.70
2023-01-20T13:38:19.081Z,10.70
2023-01-20T13:40:45.783Z,9.70
2023-01-20T17:53:36.161Z,22.60
2023-01-20T17:56:12.480Z,21.10
2023-01-20T17:58:39.968Z,21.60
2023-01-20T18:01:20.441Z,20.90
2023-01-20T18:03:48.250Z,20.30
2023-01-20T18:06:15.871Z,19.40
2023-01-20T18:08:42.723Z,20.40
2023-01-20T18:11:19.394Z,20.40
2023-01-20T18:13:46.362Z,19.30
2023-01-20T18:16:14.228Z,20.70
2023-01-20T18:18:41.564Z,20.20
2023-01-20T18:21:12.680Z,20.70
2023-01-20T18:23:39.593Z,21.00
2023-01-20T18:26:06.902Z,21.80
2023-01-20T18:28:33.739Z,21.00
2023-01-20T18:31:24.617Z,23.70
2023-01-20T18:33:56.303Z,21.20
2023-01-20T18:36:48.548Z,22.50
2023-01-20T18:39:17.218Z,24.10
2023-01-20T18:41:43.942Z,23.80
2023-01-20T18:44:10.788Z,22.10
2023-01-20T18:46:37.651Z,21.10
2023-01-20T18:49:05.841Z,22.90
2023-01-20T18:51:33.929Z,23.40
2023-01-20T18:54:05.961Z,22.70
2023-01-20T18:56:35.678Z,22.30
2023-01-20T18:59:03.195Z,21.30
2023-01-20T19:01:33.758Z,22.50
2023-01-20T19:04:01.453Z,21.00
2023-01-20T19:06:29.483Z,21.00
2023-01-20T19:08:57.349Z,19.70
2023-01-20T19:11:29.330Z,20.70
2023-01-20T19:13:56.084Z,22.50
2023-01-20T19:16:24.820Z,21.10
2023-01-20T19:18:53.031Z,22.00
2023-01-20T19:21:20.030Z,24.20
2023-01-20T19:23:54.128Z,20.90
2023-01-20T19:26:21.799Z,23.60
2023-01-20T19:28:55.096Z,21.80
2023-01-20T19:31:21.922Z,23.30
2023-01-20T19:33:51.649Z,25.60
2023-01-20T19:36:18.747Z,24.60
2023-01-20T19:38:45.548Z,21.90
2023-01-20T19:41:29.038Z,21.10
2023-01-20T19:43:57.338Z,20.80
2023-01-20T19:46:25.988Z,20.80
2023-01-20T19:48:53.308Z,20.70
2023-01-20T19:51:20.256Z,21.90
2023-01-20T19:53:47.388Z,22.40
2023-01-20T19:56:15.457Z,21.60
2023-01-20T19:58:42.700Z,22.30
2023-01-20T20:01:26.042Z,23.10
2023-01-20T20:03:53.106Z,22.40
2023-01-20T20:06:32.760Z,22.80
2023-01-20T20:09:01.363Z,23.50
2023-01-20T20:11:28.403Z,22.60
2023-01-20T20:14:00.831Z,23.90
2023-01-20T20:16:30.226Z,21.30
2023-01-20T20:18:57.439Z,21.20
2023-01-20T20:21:24.208Z,22.30
2023-01-20T20:23:52.194Z,24.10
2023-01-20T20:26:19.459Z,23.00
2023-01-20T20:28:46.214Z,23.60
2023-01-20T20:31:13.143Z,23.90
2023-01-20T20:33:41.150Z,25.80
2023-01-20T20:36:09.113Z,23.90
2023-01-20T20:38:36.767Z,23.20
2023-01-20T20:41:04.321Z,23.80
2023-01-20T20:43:31.033Z,23.80
2023-01-20T20:46:01.532Z,24.20
2023-01-20T20:48:28.719Z,25.40
2023-01-20T20:50:55.492Z,23.90
2023-01-20T20:53:22.221Z,23.70
2023-01-20T20:55:51.509Z,25.20
2023-01-20T20:58:18.150Z,25.50
2023-01-20T21:00:49.397Z,25.40
2023-01-20T21:03:16.077Z,26.70
2023-01-20T21:05:46.506Z,27.50
2023-01-20T21:08:13.482Z,28.30
2023-01-20T21:10:41.123Z,28.50
2023-01-20T21:13:08.347Z,31.50
2023-01-20T21:15:35.706Z,28.50
2023-01-20T21:18:02.352Z,33.40
2023-01-20T21:20:31.243Z,33.30
2023-01-20T21:22:58.142Z,29.40
2023-01-20T21:25:25.015Z,33.50
2023-01-20T21:27:51.666Z,33.30
2023-01-20T21:30:19.188Z,34.70
2023-01-20T21:32:45.997Z,31.30
2023-01-20T21:35:12.704Z,33.80
2023-01-20T21:37:39.458Z,31.40
2023-01-20T21:40:06.755Z,33.10
2023-01-20T21:42:33.411Z,36.00
2023-01-20T21:45:00.081Z,32.60
2023-01-20T21:47:26.802Z,33.60
2023-01-20T23:56:01.586Z,51.70
2023-01-20T23:58:28.412Z,51.60
